createdAt,value
2018-11-05T00:01:55.343Z,11.53
2018-11-05T00:04:30.812Z,11.60
2018-11-05T00:07:06.765Z,11.47
2018-11-05T00:09:42.176Z,11.27
2018-11-05T00:12:17.272Z,12.37
2018-11-05T00:14:52.477Z,12.90
2018-11-05T00:17:27.899Z,11.33
2018-11-05T00:20:02.636Z,12.60
2018-11-05T00:22:37.592Z,11.57
2018-11-05T00:25:13.525Z,11.00
2018-11-05T00:27:56.332Z,12.63
2018-11-05T00:30:31.673Z,13.67
2018-11-05T00:33:06.343Z,13.33
2018-11-05T00:35:41.628Z,12.03
2018-11-05T00:38:16.469Z,12.63
2018-11-05T00:40:51.203Z,12.53
2018-11-05T00:43:26.417Z,13.37
2018-11-05T02:37:55.785Z,14.77
2018-11-05T02:40:30.948Z,16.30
2018-11-05T02:43:06.408Z,15.13
2018-11-05T02:45:41.236Z,14.90
2018-11-05T02:48:16.598Z,14.67
2018-11-05T02:50:51.507Z,14.70
2018-11-05T02:53:26.598Z,14.23
2018-11-05T02:56:01.980Z,14.23
2018-11-05T02:58:37.335Z,16.00
2018-11-05T03:01:12.228Z,15.20
2018-11-05T03:03:46.928Z,16.03
2018-11-05T03:06:22.502Z,14.63
2018-11-05T03:08:58.078Z,14.17
2018-11-05T03:11:32.869Z,14.30
2018-11-05T03:14:08.865Z,17.03
2018-11-05T03:16:44.087Z,15.90
2018-11-05T03:19:18.890Z,14.97
2018-11-05T03:21:54.445Z,14.03
2018-11-05T03:24:29.769Z,16.33
2018-11-05T03:27:04.953Z,14.40
2018-11-05T03:29:40.361Z,14.33
2018-11-05T03:32:15.321Z,15.00
2018-11-05T03:34:50.083Z,15.50
2018-11-05T03:37:25.275Z,14.70
2018-11-05T03:40:00.285Z,14.20
2018-11-05T03:42:36.173Z,14.37
2018-11-05T03:45:12.897Z,14.50
2018-11-05T03:47:47.805Z,14.50
2018-11-05T03:50:22.857Z,14.20
2018-11-05T03:52:58.008Z,15.10
2018-11-05T03:55:33.733Z,14.73
2018-11-05T03:58:09.320Z,14.07
2018-11-05T04:00:44.128Z,15.13
2018-11-05T04:03:19.077Z,14.87
2018-11-05T04:05:54.547Z,14.60
2018-11-05T04:08:34.702Z,14.80
2018-11-05T04:11:10.546Z,15.27
2018-11-05T04:13:45.691Z,15.53
2018-11-05T05:18:49.232Z,14.90
2018-11-05T05:21:24.216Z,14.53
2018-11-05T05:24:00.544Z,15.03
2018-11-05T05:26:35.346Z,14.40
2018-11-05T05:29:11.204Z,16.30
2018-11-05T05:31:46.867Z,14.63
2018-11-05T05:34:27.916Z,15.23
2018-11-05T05:37:03.494Z,14.73
2018-11-05T05:39:39.006Z,14.00
2018-11-05T05:42:14.628Z,16.87
2018-11-05T05:44:49.513Z,14.93
2018-11-05T05:47:24.425Z,15.00
2018-11-05T05:50:00.108Z,14.27
2018-11-05T05:53:59.675Z,14.47
2018-11-05T05:56:34.440Z,14.23
2018-11-05T05:59:09.671Z,16.67
2018-11-05T06:01:44.370Z,14.40
2018-11-05T06:04:19.742Z,15.40
2018-11-05T06:06:55.176Z,14.73
2018-11-05T06:26:58.076Z,14.50
2018-11-05T06:29:33.602Z,12.53
2018-11-05T06:32:08.602Z,13.43
2018-11-05T06:34:43.712Z,15.20
2018-11-05T06:37:19.147Z,14.17
2018-11-05T06:39:54.015Z,12.83
2018-11-05T06:42:29.312Z,14.53
2018-11-05T06:45:05.034Z,12.77
2018-11-05T06:47:41.463Z,13.77
2018-11-05T06:50:19.007Z,13.70
2018-11-05T06:52:53.391Z,13.43
2018-11-05T06:55:27.981Z,13.83
2018-11-05T06:58:03.171Z,12.70
2018-11-05T07:00:41.682Z,13.67
2018-11-05T07:03:16.299Z,12.60
2018-11-05T07:05:51.434Z,12.70
2018-11-05T07:08:34.422Z,11.57
2018-11-05T07:11:08.884Z,10.80
2018-11-05T07:13:43.520Z,12.10
2018-11-05T07:16:20.454Z,11.10
2018-11-05T07:18:55.849Z,11.20
2018-11-05T07:21:30.113Z,10.77
2018-11-05T07:24:05.576Z,9.23
2018-11-05T07:26:40.412Z,10.23
2018-11-05T07:29:15.591Z,10.50
2018-11-05T07:31:51.067Z,10.43
2018-11-05T07:34:25.674Z,10.07
2018-11-05T07:37:00.737Z,8.90
2018-11-05T07:39:35.133Z,8.90
2018-11-05T07:42:10.100Z,9.53
2018-11-05T07:44:45.635Z,9.33
2018-11-05T07:47:20.192Z,9.47
2018-11-05T07:49:54.863Z,10.20
2018-11-05T07:52:30.232Z,8.97
2018-11-05T07:55:05.315Z,7.93
2018-11-05T07:57:41.950Z,9.17
2018-11-05T08:00:22.504Z,9.10
2018-11-05T08:02:57.520Z,7.97
2018-11-05T08:05:32.752Z,9.20
2018-11-05T08:08:07.032Z,8.30
2018-11-05T08:10:42.194Z,7.90
2018-11-05T08:13:17.462Z,8.90
2018-11-05T08:15:51.907Z,7.80
2018-11-05T08:18:26.729Z,8.93
2018-11-05T08:21:01.279Z,8.00
2018-11-05T08:23:36.411Z,8.07
2018-11-05T08:26:11.760Z,8.00
2018-11-05T08:28:46.739Z,8.70
2018-11-05T08:31:22.264Z,8.60
2018-11-05T08:33:56.667Z,8.10
2018-11-05T08:36:31.590Z,8.93
2018-11-05T08:39:09.768Z,8.17
2018-11-05T08:41:44.892Z,6.77
2018-11-05T08:44:20.106Z,8.60
2018-11-05T08:46:54.738Z,7.10
2018-11-05T08:49:29.075Z,7.57
2018-11-05T08:52:03.469Z,8.50
2018-11-05T08:54:38.024Z,6.70
2018-11-05T08:57:13.215Z,7.40
2018-11-05T08:59:47.727Z,6.80
2018-11-05T09:02:22.852Z,6.83
2018-11-05T09:04:58.287Z,8.57
2018-11-05T09:07:33.324Z,6.83
2018-11-05T09:10:08.980Z,8.10
2018-11-05T09:12:43.676Z,7.80
2018-11-05T09:15:19.354Z,7.30
2018-11-05T09:17:54.295Z,8.43
2018-11-05T09:20:28.711Z,6.50
2018-11-05T09:23:03.755Z,8.20
2018-11-05T09:25:38.811Z,5.97
2018-11-05T09:28:13.656Z,6.90
2018-11-05T09:30:48.650Z,7.00
2018-11-05T09:33:24.308Z,6.93
2018-11-05T09:35:58.835Z,7.23
2018-11-05T09:38:33.795Z,8.00
2018-11-05T09:41:10.039Z,6.80
2018-11-05T09:43:51.516Z,6.97
2018-11-05T09:46:26.515Z,6.90
2018-11-05T09:49:01.518Z,7.77
2018-11-05T09:51:36.503Z,6.43
2018-11-05T09:54:14.467Z,8.07
2018-11-05T09:59:29.910Z,7.87
2018-11-05T10:02:04.975Z,6.50
2018-11-05T10:04:39.629Z,6.33
2018-11-05T10:07:14.915Z,7.07
2018-11-05T10:09:50.117Z,7.20
2018-11-05T10:12:24.572Z,6.30
2018-11-05T10:14:59.529Z,7.13
2018-11-05T10:17:34.465Z,7.30
2018-11-05T10:20:12.715Z,7.40
2018-11-05T10:22:47.971Z,8.57
2018-11-05T10:25:23.199Z,6.40
2018-11-05T10:28:03.060Z,6.73
2018-11-05T10:30:39.184Z,6.90
2018-11-05T10:33:13.609Z,7.00
2018-11-05T10:35:54.499Z,6.97
2018-11-05T10:38:29.799Z,6.67
2018-11-05T10:41:04.875Z,7.53
2018-11-05T10:46:20.774Z,5.70
2018-11-05T10:48:55.130Z,7.27
2018-11-05T10:51:29.911Z,7.07
2018-11-05T10:54:04.556Z,5.93
2018-11-05T10:56:39.939Z,6.10
2018-11-05T10:59:15.172Z,6.27
2018-11-05T11:01:55.121Z,6.73
2018-11-05T11:04:31.940Z,6.27
2018-11-05T11:07:06.991Z,6.30
2018-11-05T11:09:42.294Z,5.87
2018-11-05T11:12:16.698Z,5.60
2018-11-05T11:14:51.032Z,6.03
2018-11-05T11:17:26.026Z,6.43
2018-11-05T11:20:01.008Z,6.80
2018-11-05T11:22:36.690Z,6.97
2018-11-05T11:25:12.255Z,6.30
2018-11-05T11:30:27.332Z,8.03
2018-11-05T11:33:02.471Z,6.30
2018-11-05T11:35:37.371Z,5.93
2018-11-05T11:38:12.320Z,7.20
2018-11-05T11:40:46.603Z,7.37
2018-11-05T11:43:21.641Z,6.50
2018-11-05T11:45:56.791Z,6.60
2018-11-05T11:48:31.398Z,6.70
2018-11-05T11:51:06.635Z,6.17
2018-11-05T11:53:42.235Z,7.13
2018-11-05T11:56:16.574Z,6.30
2018-11-05T11:58:51.592Z,7.23
2018-11-05T12:01:26.173Z,6.80
2018-11-05T12:04:01.286Z,5.70
2018-11-05T12:06:36.545Z,7.23
2018-11-05T12:09:11.797Z,5.93
2018-11-05T12:11:46.327Z,6.87
2018-11-05T12:14:20.726Z,6.63
2018-11-05T12:16:55.919Z,6.07
2018-11-05T12:19:30.202Z,6.00
2018-11-05T12:22:04.587Z,6.37
2018-11-05T12:24:39.737Z,5.87
2018-11-05T12:27:14.817Z,6.47
2018-11-05T12:29:49.970Z,6.10
2018-11-05T12:32:25.209Z,5.73
2018-11-05T12:34:59.694Z,5.00
2018-11-05T12:37:34.899Z,6.13
2018-11-05T12:40:11.303Z,5.00
2018-11-05T12:42:47.813Z,6.47
2018-11-05T12:45:23.020Z,7.07
2018-11-05T12:47:57.479Z,5.53
2018-11-05T12:50:31.968Z,5.13
2018-11-05T12:53:06.438Z,5.63
2018-11-05T12:55:40.769Z,5.57
2018-11-05T12:58:15.743Z,5.30
2018-11-05T13:00:50.181Z,4.63
2018-11-05T13:03:24.440Z,4.57
2018-11-05T13:05:59.678Z,5.00
2018-11-05T13:08:36.960Z,5.40
2018-11-05T13:11:11.399Z,4.93
2018-11-05T13:13:45.803Z,5.60
2018-11-05T13:16:33.601Z,5.80
2018-11-05T13:19:07.990Z,5.97
2018-11-05T13:21:42.283Z,5.27
2018-11-05T13:24:18.056Z,5.03
2018-11-05T13:26:52.540Z,5.93
2018-11-05T13:29:27.912Z,4.70
2018-11-05T13:32:03.444Z,5.80
2018-11-05T13:34:37.986Z,6.33
2018-11-05T13:37:13.410Z,5.40
2018-11-05T13:39:48.633Z,4.50
2018-11-05T13:42:24.027Z,5.97
2018-11-05T13:44:59.389Z,5.27
2018-11-05T13:47:34.257Z,4.77
2018-11-05T13:50:09.778Z,5.70
2018-11-05T13:52:43.964Z,5.43
2018-11-05T13:55:18.176Z,6.43
2018-11-05T13:57:53.098Z,5.47
2018-11-05T14:00:28.248Z,5.20
2018-11-05T14:03:02.550Z,5.40
2018-11-05T14:05:37.864Z,5.50
2018-11-05T14:08:12.433Z,5.90
2018-11-05T14:10:47.464Z,5.40
2018-11-05T14:13:21.893Z,5.83
2018-11-05T14:15:56.187Z,5.50
2018-11-05T14:18:31.476Z,5.43
2018-11-05T14:21:05.831Z,5.53
2018-11-05T14:23:40.820Z,5.60
2018-11-05T14:26:15.946Z,5.53
2018-11-05T14:28:51.451Z,6.20
2018-11-05T14:31:27.393Z,6.40
2018-11-05T14:34:02.837Z,5.73
2018-11-05T14:39:17.963Z,5.70
2018-11-05T14:41:52.364Z,7.13
2018-11-05T14:44:27.578Z,5.67
2018-11-05T14:47:02.086Z,6.57
2018-11-05T14:49:36.576Z,6.60
2018-11-05T14:52:10.841Z,6.37
2018-11-05T14:54:45.198Z,6.50
2018-11-05T14:57:20.629Z,5.47
2018-11-05T14:59:55.029Z,6.37
2018-11-05T15:02:34.606Z,5.50
2018-11-05T15:05:11.041Z,5.83
2018-11-05T15:07:46.738Z,5.70
2018-11-05T15:10:23.499Z,5.00
2018-11-05T15:12:57.805Z,6.07
2018-11-05T15:15:32.815Z,5.37
2018-11-05T15:18:08.027Z,5.60
2018-11-05T15:20:42.448Z,5.90
2018-11-05T15:23:17.843Z,5.70
2018-11-05T15:25:53.159Z,5.53
2018-11-05T15:28:28.623Z,5.80
2018-11-05T15:31:03.640Z,5.60
2018-11-05T15:33:44.476Z,6.27
2018-11-05T15:36:18.879Z,6.27
2018-11-05T15:38:54.142Z,6.93
2018-11-05T15:41:28.623Z,6.10
2018-11-05T15:44:03.850Z,6.80
2018-11-05T15:46:38.351Z,5.97
2018-11-05T15:49:12.779Z,6.73
2018-11-05T15:51:47.430Z,6.57
2018-11-05T15:54:21.749Z,6.10
2018-11-05T15:57:03.227Z,6.90
2018-11-05T15:59:37.841Z,6.90
2018-11-05T16:02:13.367Z,6.07
2018-11-05T16:04:47.848Z,6.20
2018-11-05T16:07:23.016Z,6.33
2018-11-05T16:09:58.407Z,5.60
2018-11-05T16:12:33.047Z,7.00
2018-11-05T16:15:08.725Z,7.30
2018-11-05T16:17:43.867Z,6.97
2018-11-05T16:20:20.628Z,6.93
2018-11-05T16:22:55.564Z,6.97
2018-11-05T16:25:31.179Z,7.37
2018-11-05T16:28:07.267Z,7.90
2018-11-05T16:30:42.267Z,8.20
2018-11-05T16:33:16.712Z,6.53
2018-11-05T16:35:51.081Z,7.23
2018-11-05T16:38:26.265Z,7.93
2018-11-05T16:41:00.579Z,7.60
2018-11-05T16:43:35.556Z,7.23
2018-11-05T16:46:09.950Z,7.50
2018-11-05T16:48:44.239Z,6.50
2018-11-05T16:51:18.763Z,7.43
2018-11-05T16:53:53.435Z,7.53
2018-11-05T16:56:28.252Z,7.77
2018-11-05T16:59:03.806Z,7.50
2018-11-05T17:01:38.802Z,8.60
2018-11-05T17:04:12.847Z,8.67
2018-11-05T17:06:47.795Z,10.23
2018-11-05T17:09:22.920Z,8.93
2018-11-05T17:11:58.612Z,7.67
2018-11-05T17:14:33.043Z,8.97
2018-11-05T17:17:08.162Z,8.70
2018-11-05T17:19:50.715Z,8.90
2018-11-05T17:22:25.834Z,9.67
2018-11-05T17:25:01.380Z,9.50
2018-11-05T17:27:35.888Z,8.60
2018-11-05T17:30:13.227Z,10.13
2018-11-05T17:32:48.555Z,9.47
2018-11-05T17:35:23.386Z,8.90
2018-11-05T17:37:59.652Z,8.80
2018-11-05T17:40:34.064Z,9.07
2018-11-05T17:43:09.660Z,10.40
2018-11-05T17:45:44.016Z,9.10
2018-11-05T17:48:20.223Z,10.07
2018-11-05T17:50:54.738Z,9.40
2018-11-05T17:53:28.968Z,8.70
2018-11-05T17:56:03.418Z,9.17
2018-11-05T17:58:38.291Z,10.13
2018-11-05T18:01:12.947Z,10.63
2018-11-05T18:03:47.524Z,10.70
2018-11-05T18:06:23.087Z,10.37
2018-11-05T18:08:58.652Z,11.37
2018-11-05T18:11:39.116Z,14.03
2018-11-05T18:14:13.489Z,11.20
2018-11-05T18:16:49.621Z,10.90
2018-11-05T18:19:25.479Z,11.20
2018-11-05T18:22:00.972Z,12.70
2018-11-05T18:24:37.888Z,11.47
2018-11-05T18:27:12.301Z,11.67
2018-11-05T18:29:48.180Z,10.17
2018-11-05T18:32:24.938Z,11.40
2018-11-05T18:34:59.256Z,9.60
2018-11-05T18:37:35.824Z,10.40
2018-11-05T18:40:11.778Z,10.43
2018-11-05T18:42:47.900Z,9.67
2018-11-05T18:45:23.038Z,11.30
2018-11-05T18:47:57.489Z,9.37
2018-11-05T18:50:32.063Z,10.77
2018-11-05T18:53:06.355Z,10.00
2018-11-05T18:55:40.819Z,10.53
2018-11-05T18:58:16.737Z,11.40
2018-11-05T19:00:51.346Z,10.60
2018-11-05T19:03:25.878Z,10.03
2018-11-05T19:06:01.062Z,11.30
2018-11-05T19:08:39.972Z,12.00
2018-11-05T19:11:14.359Z,10.20
2018-11-05T19:13:49.715Z,11.00
2018-11-05T19:16:25.384Z,10.67
2018-11-05T19:19:00.576Z,9.60
2018-11-05T19:21:44.551Z,10.83
2018-11-05T19:24:35.279Z,10.87
2018-11-05T19:27:09.674Z,10.90
2018-11-05T19:29:45.245Z,10.63
2018-11-05T19:32:20.372Z,10.63
2018-11-05T19:34:54.876Z,11.27
2018-11-05T19:37:30.048Z,11.03
2018-11-05T19:40:05.387Z,11.33
2018-11-05T19:42:42.630Z,10.87
2018-11-05T19:45:17.859Z,11.30
2018-11-05T19:47:52.691Z,11.87
2018-11-05T19:50:27.171Z,11.40
2018-11-05T19:53:02.492Z,11.33
2018-11-05T19:55:36.861Z,12.03
2018-11-05T19:58:11.991Z,10.83
2018-11-05T20:00:48.485Z,10.10
2018-11-05T20:03:22.971Z,10.57
2018-11-05T20:05:59.824Z,11.33
2018-11-05T20:08:40.035Z,11.67
2018-11-05T20:11:15.410Z,10.97
2018-11-05T20:13:52.086Z,10.57
2018-11-05T20:16:28.248Z,10.20
2018-11-05T20:19:04.167Z,11.70
2018-11-05T20:21:41.628Z,10.60
2018-11-05T20:24:17.337Z,10.80
2018-11-05T20:26:52.571Z,9.90
2018-11-05T20:29:29.394Z,11.73
2018-11-05T20:32:05.177Z,10.13
2018-11-05T20:34:40.527Z,10.40
2018-11-05T20:37:16.976Z,10.10
2018-11-05T20:39:51.857Z,10.33
2018-11-05T20:42:29.317Z,10.73
2018-11-05T20:45:03.940Z,11.37
2018-11-05T20:47:40.531Z,10.30
2018-11-05T20:50:18.412Z,10.20
2018-11-05T20:52:53.775Z,11.90
2018-11-05T20:55:29.008Z,10.07
2018-11-05T20:58:05.117Z,10.20
2018-11-05T21:00:47.046Z,9.83
2018-11-05T21:03:22.068Z,11.47
2018-11-05T21:05:57.667Z,10.03
2018-11-05T21:08:40.087Z,10.27
2018-11-05T21:11:15.378Z,10.30
2018-11-05T21:13:50.558Z,10.23
2018-11-05T21:16:26.478Z,10.03
2018-11-05T21:19:02.383Z,11.03
2018-11-05T21:21:38.112Z,10.73
2018-11-05T21:24:12.807Z,9.77
2018-11-05T21:26:47.975Z,13.23
2018-11-05T21:29:22.996Z,10.60
2018-11-05T21:31:58.032Z,12.03
2018-11-05T21:34:33.736Z,12.00
2018-11-05T21:37:08.951Z,10.87
2018-11-05T21:39:43.387Z,10.80
2018-11-05T21:42:18.382Z,10.20
2018-11-05T21:44:52.902Z,10.67
2018-11-05T21:47:27.771Z,10.97
2018-11-05T21:50:03.342Z,10.80
2018-11-05T21:52:38.789Z,11.63
2018-11-05T21:55:13.186Z,11.27
2018-11-05T21:57:49.307Z,11.13
2018-11-05T22:00:24.826Z,9.30
2018-11-05T22:03:00.743Z,11.10
2018-11-05T22:05:36.215Z,11.40
2018-11-05T22:08:11.643Z,11.27
2018-11-05T22:10:46.885Z,10.30
2018-11-05T22:13:22.038Z,11.83
2018-11-05T22:15:56.392Z,10.60
2018-11-05T22:18:37.323Z,12.47
2018-11-05T22:21:12.320Z,10.97
2018-11-05T22:23:47.590Z,11.10
2018-11-05T22:26:22.555Z,11.13
2018-11-05T22:28:57.684Z,11.77
2018-11-05T22:31:32.836Z,11.60
2018-11-05T22:34:07.322Z,11.43
2018-11-05T22:36:49.797Z,10.70
2018-11-05T22:39:24.233Z,10.67
2018-11-05T22:42:07.380Z,10.63
2018-11-05T22:44:41.727Z,11.30
2018-11-05T22:47:16.002Z,12.03
2018-11-05T22:49:50.366Z,11.13
2018-11-05T22:52:24.643Z,10.33
2018-11-05T22:54:59.063Z,10.87
2018-11-05T22:57:34.058Z,10.40
2018-11-05T23:00:18.305Z,10.97
2018-11-05T23:02:59.167Z,11.03
2018-11-05T23:05:34.078Z,11.03
2018-11-05T23:08:08.327Z,10.73
2018-11-05T23:10:43.342Z,10.50
2018-11-05T23:13:18.512Z,10.97
2018-11-05T23:15:53.154Z,10.10
2018-11-05T23:18:28.272Z,11.10
2018-11-05T23:21:03.295Z,10.40
2018-11-05T23:23:39.050Z,12.80
2018-11-05T23:26:14.279Z,11.23
2018-11-05T23:28:49.439Z,10.57
2018-11-05T23:31:24.743Z,10.30
2018-11-05T23:33:59.067Z,10.17
2018-11-05T23:36:34.255Z,9.77
2018-11-05T23:39:10.259Z,12.10
2018-11-05T23:41:44.616Z,13.50
2018-11-05T23:44:19.674Z,9.90
2018-11-05T23:46:54.111Z,12.30
2018-11-05T23:49:28.516Z,9.67
2018-11-05T23:52:02.888Z,9.90
2018-11-05T23:54:37.200Z,10.43
2018-11-05T23:57:12.169Z,9.70
2018-11-05T23:59:46.638Z,10.43
